McColl, South Carolina
Current Conditions -  °F | °C
As of 1:35 PM on Saturday 20 Dec 2014 (Local Time) from KBBP Reporting Station
Overcast Overcast  
Wind Chill: 41°   Ceiling: 3300
Heat Index: 45°   Visibility: 7mi
Dew Point: 28°   Wind: 6mph
Humidity: 53%   Direction: 70°ENE
Pressure: 30.23"   Gusts: NA
Location:  34.67°N, 79.55°W
Report Text: KBBP 201835Z AUTO 07005KT 7SM OVC033 07/M02 A3023 RMK AO2
Loading
Personal Weather Stations






























Interactive Weather Map New forecast layout! Learn more

10-Day Weather Forecast

Advertisements
Track Severe Weather on mobile